Time;durP1;ratioP1;P1;durP2;ratioP2;P2;SDS_P1;SDS_P2;PMS_P1;PMS_P2;Temp;Humidity;BMP_temperature;BMP_pressure;BME280_temperature;BME280_humidity;BME280_pressure;Samples;Min_cycle;Max_cycle;Signal;HPM_P1;HPM_P2
2022/01/09 00:01:41;;;;;;;46.42;30.60;;;;;;;;;;4950643;28;20437;-92
2022/01/09 00:04:08;;;;;;;46.10;30.20;;;;;;;;;;4950771;28;20424;-92
2022/01/09 00:06:35;;;;;;;41.83;28.65;;;;;;;;;;4946213;29;20988;-92
2022/01/09 00:09:02;;;;;;;43.25;28.83;;;;;;;;;;4950480;28;20940;-92
2022/01/09 00:11:30;;;;;;;39.88;27.52;;;;;;;;;;4947974;28;20479;-92
2022/01/09 00:13:57;;;;;;;36.93;26.10;;;;;;;;;;4950273;28;20501;-93
2022/01/09 00:16:25;;;;;;;42.20;27.83;;;;;;;;;;4950718;28;20416;-92
2022/01/09 00:18:52;;;;;;;38.97;26.38;;;;;;;;;;4950134;28;20419;-93
2022/01/09 00:21:19;;;;;;;38.35;26.05;;;;;;;;;;4950716;28;20926;-91
2022/01/09 00:23:46;;;;;;;34.70;24.60;;;;;;;;;;4949989;28;20998;-92
2022/01/09 00:26:13;;;;;;;35.28;24.92;;;;;;;;;;4946622;28;20892;-92
2022/01/09 00:28:42;;;;;;;34.78;23.55;;;;;;;;;;4950602;28;20423;-92
2022/01/09 00:31:09;;;;;;;36.35;24.65;;;;;;;;;;4950339;28;20423;-93
2022/01/09 00:33:36;;;;;;;30.05;20.75;;;;;;;;;;4946682;29;20424;-93
2022/01/09 00:36:03;;;;;;;29.33;20.88;;;;;;;;;;4950678;28;20417;-92
2022/01/09 00:38:30;;;;;;;29.95;21.45;;;;;;;;;;4950489;28;20412;-91
2022/01/09 00:40:58;;;;;;;27.48;20.00;;;;;;;;;;4947254;28;20427;-92
2022/01/09 00:43:25;;;;;;;28.10;20.13;;;;;;;;;;4949748;28;20418;-92
2022/01/09 00:45:54;;;;;;;30.23;20.98;;;;;;;;;;4949833;28;20844;-92
2022/01/09 00:48:21;;;;;;;29.38;21.55;;;;;;;;;;4949921;28;20420;-91
2022/01/09 00:50:47;;;;;;;33.17;23.90;;;;;;;;;;4949868;28;20427;-91
2022/01/09 00:53:14;;;;;;;36.22;24.77;;;;;;;;;;4949834;28;20423;-92
2022/01/09 00:55:41;;;;;;;35.67;24.87;;;;;;;;;;4945862;28;20427;-92
2022/01/09 00:58:08;;;;;;;36.70;23.42;;;;;;;;;;4950172;28;20424;-92
2022/01/09 01:00:39;;;;;;;31.42;21.73;;;;;;;;;;4946592;29;20424;-92
2022/01/09 01:03:07;;;;;;;31.20;22.38;;;;;;;;;;4946622;29;21004;-93
2022/01/09 01:05:34;;;;;;;32.38;21.67;;;;;;;;;;4949626;28;20424;-92
2022/01/09 01:08:01;;;;;;;30.57;21.33;;;;;;;;;;4948964;29;21005;-91
2022/01/09 01:10:28;;;;;;;30.20;19.60;;;;;;;;;;4948525;28;20416;-92
2022/01/09 01:12:55;;;;;;;26.63;19.33;;;;;;;;;;4949487;28;20443;-92
2022/01/09 01:15:22;;;;;;;28.35;19.73;;;;;;;;;;4949155;28;20446;-91
2022/01/09 01:17:49;;;;;;;27.67;19.85;;;;;;;;;;4950079;28;20420;-93
2022/01/09 01:20:22;;;;;;;27.55;19.80;;;;;;;;;;4946809;28;20416;-90
2022/01/09 01:22:50;;;;;;;27.35;19.70;;;;;;;;;;4953711;28;20416;-90
2022/01/09 01:25:17;;;;;;;25.40;19.33;;;;;;;;;;4951236;28;20483;-92
2022/01/09 01:27:45;;;;;;;28.97;20.23;;;;;;;;;;4953343;28;20986;-92
2022/01/09 01:30:13;;;;;;;28.05;19.88;;;;;;;;;;4954190;28;20719;-93
2022/01/09 01:32:41;;;;;;;26.55;19.95;;;;;;;;;;4953403;28;20422;-93
2022/01/09 01:35:09;;;;;;;27.27;19.67;;;;;;;;;;4950967;29;20781;-92
2022/01/09 01:37:41;;;;;;;28.40;20.33;;;;;;;;;;4950352;29;20833;-93
2022/01/09 01:40:11;;;;;;;27.05;19.70;;;;;;;;;;4948754;29;20435;-92
2022/01/09 01:42:38;;;;;;;26.92;19.63;;;;;;;;;;4950853;29;20415;-93
2022/01/09 01:45:06;;;;;;;28.55;19.65;;;;;;;;;;4953638;28;20503;-92
2022/01/09 01:47:33;;;;;;;26.88;19.60;;;;;;;;;;4953103;28;20427;-91
2022/01/09 01:50:00;;;;;;;25.90;19.55;;;;;;;;;;4952374;29;20412;-92
2022/01/09 01:52:31;;;;;;;25.30;19.40;;;;;;;;;;4953064;28;20412;-92
2022/01/09 01:55:00;;;;;;;26.80;18.73;;;;;;;;;;4951087;28;20424;-92
2022/01/09 01:57:28;;;;;;;25.63;18.95;;;;;;;;;;4952199;28;20926;-93
2022/01/09 01:59:56;;;;;;;25.10;18.45;;;;;;;;;;4952790;28;20416;-92
2022/01/09 02:02:25;;;;;;;25.85;19.10;;;;;;;;;;4952886;28;20423;-90
2022/01/09 02:04:52;;;;;;;28.43;20.87;;;;;;;;;;4951898;28;20459;-93
2022/01/09 02:07:20;;;;;;;31.23;22.30;;;;;;;;;;4954860;28;20523;-92
2022/01/09 02:09:47;;;;;;;30.63;21.27;;;;;;;;;;4952715;28;20413;-92
2022/01/09 02:12:15;;;;;;;30.85;21.55;;;;;;;;;;4976953;28;20400;-93
2022/01/09 02:14:46;;;;;;;30.33;21.35;;;;;;;;;;4961303;28;20432;-92
2022/01/09 02:17:17;;;;;;;31.00;21.07;;;;;;;;;;4953066;28;20411;-92
2022/01/09 02:19:51;;;;;;;37.55;24.60;;;;;;;;;;4952586;28;20773;-92
2022/01/09 02:22:19;;;;;;;28.67;22.07;;;;;;;;;;4953085;28;20714;-92
2022/01/09 02:24:46;;;;;;;32.30;22.93;;;;;;;;;;4950615;28;20607;-92
2022/01/09 02:27:13;;;;;;;32.60;22.55;;;;;;;;;;4952816;28;20920;-92
2022/01/09 02:29:40;;;;;;;31.80;22.95;;;;;;;;;;4952667;28;20738;-91
2022/01/09 02:32:07;;;;;;;32.88;22.80;;;;;;;;;;4951180;28;20412;-92
2022/01/09 02:34:35;;;;;;;34.05;23.50;;;;;;;;;;4951816;28;20419;-92
2022/01/09 02:37:03;;;;;;;32.72;23.30;;;;;;;;;;4948375;29;20487;-92
2022/01/09 02:39:30;;;;;;;34.50;23.83;;;;;;;;;;4949385;28;20431;-92
2022/01/09 02:41:57;;;;;;;32.63;24.40;;;;;;;;;;4951533;28;20919;-93
2022/01/09 02:44:24;;;;;;;31.48;22.88;;;;;;;;;;4952189;28;20416;-93
2022/01/09 02:47:01;;;;;;;32.70;23.63;;;;;;;;;;4951637;28;20427;-93
2022/01/09 02:49:29;;;;;;;32.17;22.25;;;;;;;;;;4951502;28;20443;-92
2022/01/09 02:51:58;;;;;;;35.03;24.70;;;;;;;;;;4952037;28;20516;-92
2022/01/09 02:57:10;;;;;;;31.33;22.47;;;;;;;;;;4949585;29;20419;-92
2022/01/09 02:59:37;;;;;;;32.92;23.25;;;;;;;;;;4951722;28;20427;-92
2022/01/09 03:02:05;;;;;;;32.95;23.40;;;;;;;;;;4952069;28;20427;-91
2022/01/09 03:04:32;;;;;;;32.20;22.38;;;;;;;;;;4948250;29;20443;-92
2022/01/09 03:06:59;;;;;;;30.47;21.77;;;;;;;;;;4952396;28;20432;-93
2022/01/09 03:09:28;;;;;;;29.33;22.25;;;;;;;;;;4951198;28;20479;-92
2022/01/09 03:11:54;;;;;;;30.27;22.05;;;;;;;;;;4951831;28;21195;-92
2022/01/09 03:14:22;;;;;;;29.93;21.53;;;;;;;;;;4951425;28;20412;-92
2022/01/09 03:16:49;;;;;;;29.98;21.80;;;;;;;;;;4951983;28;20435;-92
2022/01/09 03:19:16;;;;;;;33.25;22.60;;;;;;;;;;4952067;28;20447;-92
2022/01/09 03:21:42;;;;;;;30.38;22.20;;;;;;;;;;4951873;28;21083;-92
2022/01/09 03:24:09;;;;;;;32.03;21.98;;;;;;;;;;4951556;28;20420;-92
2022/01/09 03:26:38;;;;;;;32.55;22.02;;;;;;;;;;4951296;28;20419;-91
2022/01/09 03:29:05;;;;;;;31.27;21.98;;;;;;;;;;4950655;28;20431;-92
2022/01/09 03:31:32;;;;;;;28.00;20.60;;;;;;;;;;4950894;28;20420;-93
2022/01/09 03:33:59;;;;;;;30.38;20.75;;;;;;;;;;4951975;28;20424;-92
2022/01/09 03:36:26;;;;;;;28.52;19.88;;;;;;;;;;4951470;28;20419;-92
2022/01/09 03:38:53;;;;;;;30.30;20.83;;;;;;;;;;4951386;28;20419;-91
2022/01/09 03:41:20;;;;;;;25.98;19.65;;;;;;;;;;4945489;28;20423;-93
2022/01/09 03:43:48;;;;;;;28.17;20.10;;;;;;;;;;4950647;28;20435;-93
2022/01/09 03:46:15;;;;;;;29.60;19.48;;;;;;;;;;4951444;28;20435;-93
2022/01/09 03:48:42;;;;;;;28.67;19.70;;;;;;;;;;4951233;28;20416;-92
2022/01/09 03:51:10;;;;;;;27.90;19.38;;;;;;;;;;4951733;28;20420;-92
2022/01/09 03:53:37;;;;;;;26.48;19.58;;;;;;;;;;4950986;28;20412;-92
2022/01/09 03:56:06;;;;;;;27.65;19.65;;;;;;;;;;4948564;28;20475;-92
2022/01/09 03:58:35;;;;;;;27.45;19.70;;;;;;;;;;4950731;28;20443;-92
2022/01/09 04:01:06;;;;;;;27.65;20.38;;;;;;;;;;4947713;29;20471;-91
2022/01/09 04:03:33;;;;;;;25.70;19.33;;;;;;;;;;4950994;28;20424;-92
2022/01/09 04:06:01;;;;;;;26.48;20.00;;;;;;;;;;4951441;28;20423;-92
2022/01/09 04:08:28;;;;;;;27.10;19.00;;;;;;;;;;4949517;28;20451;-92
2022/01/09 04:10:56;;;;;;;25.83;19.88;;;;;;;;;;4950278;29;20474;-91
2022/01/09 04:13:23;;;;;;;29.15;19.92;;;;;;;;;;4950777;28;20423;-92
2022/01/09 04:15:50;;;;;;;25.77;18.83;;;;;;;;;;4951010;28;20427;-92
2022/01/09 04:18:19;;;;;;;28.10;19.10;;;;;;;;;;4951671;28;20498;-92
2022/01/09 04:20:47;;;;;;;25.90;18.40;;;;;;;;;;4951142;28;20420;-92
2022/01/09 04:23:16;;;;;;;28.08;19.05;;;;;;;;;;4950914;28;20424;-92
2022/01/09 04:25:45;;;;;;;25.73;18.60;;;;;;;;;;4947794;28;23359;-91
2022/01/09 04:28:13;;;;;;;25.90;18.90;;;;;;;;;;4951117;28;20416;-92
2022/01/09 04:30:40;;;;;;;26.42;18.92;;;;;;;;;;4951064;28;20751;-91
2022/01/09 04:33:08;;;;;;;25.05;17.75;;;;;;;;;;4951286;28;20412;-93
2022/01/09 04:35:37;;;;;;;21.30;15.35;;;;;;;;;;4950528;28;20423;-92
2022/01/09 04:38:05;;;;;;;18.75;14.10;;;;;;;;;;4949725;28;20420;-92
2022/01/09 04:40:32;;;;;;;18.23;14.00;;;;;;;;;;4938784;29;20801;-92
2022/01/09 04:43:01;;;;;;;18.40;13.52;;;;;;;;;;4950533;29;20422;-92
2022/01/09 04:45:29;;;;;;;20.02;13.60;;;;;;;;;;4950404;28;20451;-92
2022/01/09 04:48:01;;;;;;;17.10;13.17;;;;;;;;;;4950694;28;20452;-92
2022/01/09 04:50:30;;;;;;;17.23;12.63;;;;;;;;;;4950315;28;20427;-90
2022/01/09 04:53:05;;;;;;;17.42;12.82;;;;;;;;;;4950785;28;20416;-92
2022/01/09 04:55:33;;;;;;;17.80;12.70;;;;;;;;;;4944726;28;20443;-91
2022/01/09 04:58:00;;;;;;;16.83;12.82;;;;;;;;;;4946357;29;20416;-92
2022/01/09 05:00:27;;;;;;;18.67;12.50;;;;;;;;;;4952764;28;20919;-93
2022/01/09 05:02:55;;;;;;;16.80;12.60;;;;;;;;;;4957790;28;20400;-92
2022/01/09 05:05:23;;;;;;;16.77;12.18;;;;;;;;;;4969721;28;20509;-93
2022/01/09 05:07:50;;;;;;;15.15;11.75;;;;;;;;;;4954224;28;20435;-92
2022/01/09 05:10:19;;;;;;;13.98;10.88;;;;;;;;;;4945692;29;20416;-92
2022/01/09 05:12:46;;;;;;;15.25;11.88;;;;;;;;;;4950027;28;20781;-92
2022/01/09 05:15:15;;;;;;;14.55;10.82;;;;;;;;;;4950203;28;20424;-91
2022/01/09 05:17:42;;;;;;;18.40;11.48;;;;;;;;;;4949955;28;20514;-93
2022/01/09 05:20:10;;;;;;;14.68;10.88;;;;;;;;;;4950368;28;20415;-92
2022/01/09 05:22:38;;;;;;;14.68;10.80;;;;;;;;;;4949318;28;20418;-93
2022/01/09 05:25:07;;;;;;;14.70;10.77;;;;;;;;;;4947090;28;20415;-92
2022/01/09 05:27:36;;;;;;;13.88;10.90;;;;;;;;;;4949424;28;20423;-92
2022/01/09 05:30:06;;;;;;;14.07;10.32;;;;;;;;;;4950590;28;20412;-92
2022/01/09 05:32:33;;;;;;;13.52;10.20;;;;;;;;;;4946394;29;20420;-92
2022/01/09 05:35:00;;;;;;;13.38;10.60;;;;;;;;;;4946919;29;20416;-91
2022/01/09 05:37:27;;;;;;;14.00;10.68;;;;;;;;;;4950302;28;20765;-92
2022/01/09 05:39:54;;;;;;;13.93;10.57;;;;;;;;;;4945059;28;20515;-91
2022/01/09 05:42:21;;;;;;;12.25;9.65;;;;;;;;;;4950016;28;20419;-93
2022/01/09 05:44:50;;;;;;;12.30;9.70;;;;;;;;;;4949781;28;21105;-91
2022/01/09 05:47:17;;;;;;;14.00;10.18;;;;;;;;;;4949682;28;20487;-93
2022/01/09 05:49:44;;;;;;;14.13;10.25;;;;;;;;;;4949340;28;20773;-93
2022/01/09 05:52:11;;;;;;;14.75;10.40;;;;;;;;;;4950021;28;20427;-90
2022/01/09 05:54:38;;;;;;;13.50;10.75;;;;;;;;;;4953878;28;20702;-91
2022/01/09 05:57:06;;;;;;;16.00;11.02;;;;;;;;;;4971370;28;20419;-93
2022/01/09 05:59:33;;;;;;;13.25;10.95;;;;;;;;;;4970658;28;20769;-92
2022/01/09 06:02:02;;;;;;;16.38;12.07;;;;;;;;;;4968265;29;20400;-89
2022/01/09 06:04:30;;;;;;;16.17;11.53;;;;;;;;;;4971426;28;20400;-92
2022/01/09 06:06:57;;;;;;;15.50;11.70;;;;;;;;;;4969653;28;20429;-92
2022/01/09 06:09:24;;;;;;;14.90;11.32;;;;;;;;;;4948763;29;20423;-92
2022/01/09 06:11:51;;;;;;;16.15;11.82;;;;;;;;;;4953578;28;20712;-91
2022/01/09 06:14:18;;;;;;;17.00;12.45;;;;;;;;;;4952680;28;20833;-90
2022/01/09 06:16:45;;;;;;;17.02;12.68;;;;;;;;;;4953093;28;20419;-92
2022/01/09 06:19:14;;;;;;;17.55;12.55;;;;;;;;;;4952991;28;20654;-92
2022/01/09 06:21:41;;;;;;;15.77;12.02;;;;;;;;;;4952832;28;20441;-92
2022/01/09 06:24:08;;;;;;;16.77;12.15;;;;;;;;;;4948664;28;20412;-91
2022/01/09 06:26:35;;;;;;;17.77;12.23;;;;;;;;;;4950248;28;20432;-92
2022/01/09 06:29:02;;;;;;;15.40;11.18;;;;;;;;;;4945946;29;20467;-92
2022/01/09 06:31:29;;;;;;;16.50;11.48;;;;;;;;;;4952704;28;20777;-92
2022/01/09 06:33:56;;;;;;;15.13;11.30;;;;;;;;;;4950690;28;20459;-91
2022/01/09 06:36:24;;;;;;;16.60;11.48;;;;;;;;;;4952490;28;20905;-91
2022/01/09 06:38:51;;;;;;;15.68;11.50;;;;;;;;;;4952894;28;20416;-92
2022/01/09 06:41:18;;;;;;;16.15;11.15;;;;;;;;;;4950584;28;20764;-92
2022/01/09 06:43:45;;;;;;;14.93;11.02;;;;;;;;;;4952412;28;20419;-92
2022/01/09 06:46:12;;;;;;;14.65;10.93;;;;;;;;;;4952170;28;20426;-91
2022/01/09 06:48:39;;;;;;;17.65;13.15;;;;;;;;;;4951512;28;20435;-92
2022/01/09 06:51:06;;;;;;;17.30;12.60;;;;;;;;;;4952483;28;20404;-92
2022/01/09 06:53:35;;;;;;;15.05;11.57;;;;;;;;;;4951959;28;20428;-91
2022/01/09 06:56:02;;;;;;;17.25;10.95;;;;;;;;;;4947377;29;20420;-92
2022/01/09 06:58:29;;;;;;;16.63;11.27;;;;;;;;;;4951842;28;20420;-92
2022/01/09 07:00:57;;;;;;;19.97;11.43;;;;;;;;;;4951977;28;20427;-92
2022/01/09 07:03:24;;;;;;;14.93;10.73;;;;;;;;;;4951936;28;20420;-91
2022/01/09 07:05:51;;;;;;;14.20;11.10;;;;;;;;;;4951884;28;20408;-91
2022/01/09 07:08:18;;;;;;;15.40;10.93;;;;;;;;;;4951622;28;20424;-92
2022/01/09 07:10:46;;;;;;;14.77;10.82;;;;;;;;;;4949672;28;20814;-92
2022/01/09 07:13:15;;;;;;;15.40;10.93;;;;;;;;;;4952251;28;20416;-91
2022/01/09 07:15:43;;;;;;;14.85;10.48;;;;;;;;;;4951134;28;20467;-92
2022/01/09 07:18:10;;;;;;;15.45;11.00;;;;;;;;;;4951002;28;20905;-91
2022/01/09 07:20:37;;;;;;;16.88;11.68;;;;;;;;;;4951335;28;20416;-92
2022/01/09 07:23:04;;;;;;;14.43;10.88;;;;;;;;;;4951414;28;20897;-91
2022/01/09 07:25:31;;;;;;;15.57;11.25;;;;;;;;;;4944224;29;20420;-93
2022/01/09 07:28:01;;;;;;;15.32;11.70;;;;;;;;;;4951446;28;20845;-91
2022/01/09 07:30:28;;;;;;;13.55;10.70;;;;;;;;;;4950712;29;20412;-92
2022/01/09 07:32:55;;;;;;;14.18;10.85;;;;;;;;;;4951565;28;20419;-92
2022/01/09 07:35:22;;;;;;;13.80;10.90;;;;;;;;;;4951357;28;20908;-91
2022/01/09 07:37:50;;;;;;;15.85;11.60;;;;;;;;;;4950892;28;20425;-92
2022/01/09 07:40:17;;;;;;;16.33;11.35;;;;;;;;;;4949257;28;20431;-92
2022/01/09 07:42:46;;;;;;;14.27;11.00;;;;;;;;;;4951131;28;20419;-91
2022/01/09 07:45:15;;;;;;;14.13;10.88;;;;;;;;;;4951236;28;20701;-92
2022/01/09 07:47:42;;;;;;;17.30;11.65;;;;;;;;;;4950606;28;20427;-91
2022/01/09 07:50:11;;;;;;;17.13;11.95;;;;;;;;;;4951108;28;20427;-92
2022/01/09 07:52:39;;;;;;;15.98;11.57;;;;;;;;;;4952832;28;20471;-91
2022/01/09 07:55:07;;;;;;;16.13;11.83;;;;;;;;;;4953361;28;20424;-92
2022/01/09 07:57:35;;;;;;;16.23;11.45;;;;;;;;;;4972795;28;20407;-92
2022/01/09 08:00:03;;;;;;;14.50;10.80;;;;;;;;;;4961037;28;20461;-91
2022/01/09 08:02:31;;;;;;;15.73;10.80;;;;;;;;;;4950929;28;20515;-91
2022/01/09 08:04:58;;;;;;;14.77;9.98;;;;;;;;;;4950252;29;20416;-92
2022/01/09 08:07:25;;;;;;;14.10;10.70;;;;;;;;;;4950925;28;20428;-91
2022/01/09 08:09:52;;;;;;;14.00;10.50;;;;;;;;;;4949626;28;20428;-92
2022/01/09 08:12:19;;;;;;;15.53;10.63;;;;;;;;;;4951302;28;20777;-92
2022/01/09 08:14:46;;;;;;;18.60;12.68;;;;;;;;;;4950270;28;20424;-92
2022/01/09 08:17:13;;;;;;;45.22;25.00;;;;;;;;;;4950904;28;20504;-92
2022/01/09 08:19:42;;;;;;;40.17;22.77;;;;;;;;;;4950115;28;20420;-92
2022/01/09 08:22:09;;;;;;;19.10;14.05;;;;;;;;;;4951035;28;20424;-91
2022/01/09 08:24:37;;;;;;;18.75;13.68;;;;;;;;;;4950008;28;20420;-91
2022/01/09 08:27:05;;;;;;;18.42;13.93;;;;;;;;;;4951107;28;20420;-91
2022/01/09 08:29:32;;;;;;;17.85;12.77;;;;;;;;;;4950556;28;20595;-90
2022/01/09 08:31:59;;;;;;;20.30;15.30;;;;;;;;;;4947107;29;20431;-92
2022/01/09 08:34:26;;;;;;;28.27;20.83;;;;;;;;;;4950392;28;20424;-92
2022/01/09 08:36:54;;;;;;;40.58;32.55;;;;;;;;;;4951058;28;20416;-91
2022/01/09 08:39:22;;;;;;;23.05;19.25;;;;;;;;;;4952120;28;20411;-91
2022/01/09 08:41:48;;;;;;;17.17;13.98;;;;;;;;;;4950928;29;20419;-91
2022/01/09 08:44:15;;;;;;;18.60;15.37;;;;;;;;;;4950197;28;20504;-91
2022/01/09 08:46:42;;;;;;;17.05;13.60;;;;;;;;;;4949636;28;20897;-92
2022/01/09 08:49:09;;;;;;;20.65;16.65;;;;;;;;;;4950289;28;20658;-91
2022/01/09 08:51:36;;;;;;;18.23;12.60;;;;;;;;;;4950100;28;20423;-92
2022/01/09 08:54:04;;;;;;;20.42;14.20;;;;;;;;;;4947348;28;20443;-91
2022/01/09 08:56:32;;;;;;;17.90;13.77;;;;;;;;;;4948585;29;20773;-92
2022/01/09 08:59:01;;;;;;;18.92;14.20;;;;;;;;;;4950090;29;20495;-92
2022/01/09 09:01:28;;;;;;;22.35;15.85;;;;;;;;;;4949766;28;20439;-91
2022/01/09 09:03:55;;;;;;;22.70;16.45;;;;;;;;;;4950227;28;20431;-92
2022/01/09 09:06:22;;;;;;;23.88;16.83;;;;;;;;;;4950286;28;20412;-91
2022/01/09 09:08:48;;;;;;;22.65;17.52;;;;;;;;;;4950089;28;20432;-91
2022/01/09 09:11:17;;;;;;;22.52;17.60;;;;;;;;;;4949091;28;20507;-92
2022/01/09 09:13:44;;;;;;;24.45;18.10;;;;;;;;;;4949623;28;20418;-91
2022/01/09 09:16:11;;;;;;;22.27;16.92;;;;;;;;;;4950227;28;20416;-90
2022/01/09 09:18:39;;;;;;;22.35;16.02;;;;;;;;;;4949388;28;20788;-91
2022/01/09 09:21:06;;;;;;;22.52;16.02;;;;;;;;;;4950267;28;20451;-92
2022/01/09 09:23:33;;;;;;;24.77;19.52;;;;;;;;;;4943847;29;20442;-91
2022/01/09 09:26:00;;;;;;;21.15;15.80;;;;;;;;;;4950496;29;20416;-91
2022/01/09 09:28:28;;;;;;;19.93;15.33;;;;;;;;;;4949322;28;20440;-92
2022/01/09 09:30:55;;;;;;;24.52;19.60;;;;;;;;;;4949926;28;20423;-92
2022/01/09 09:33:22;;;;;;;22.00;15.38;;;;;;;;;;4950252;28;20423;-92
2022/01/09 09:35:49;;;;;;;27.08;21.83;;;;;;;;;;4950610;28;20420;-91
2022/01/09 09:38:17;;;;;;;20.45;14.93;;;;;;;;;;4950625;28;20685;-90
2022/01/09 09:40:44;;;;;;;17.83;13.68;;;;;;;;;;4947698;28;20423;-91
2022/01/09 09:43:11;;;;;;;19.55;13.15;;;;;;;;;;4953106;28;20420;-91
2022/01/09 09:45:40;;;;;;;16.83;12.77;;;;;;;;;;4953154;28;20852;-91
2022/01/09 09:48:07;;;;;;;18.40;13.10;;;;;;;;;;4953347;28;20484;-92
2022/01/09 09:50:34;;;;;;;22.45;13.38;;;;;;;;;;4953137;28;20419;-92
2022/01/09 09:53:02;;;;;;;19.50;13.15;;;;;;;;;;4949095;29;20423;-91
2022/01/09 09:55:30;;;;;;;19.20;13.90;;;;;;;;;;4951119;28;20449;-92
2022/01/09 09:57:57;;;;;;;22.33;15.35;;;;;;;;;;4954101;28;20424;-92
2022/01/09 10:00:24;;;;;;;50.78;31.88;;;;;;;;;;4953627;28;20420;-91
2022/01/09 10:02:56;;;;;;;28.10;20.20;;;;;;;;;;4953181;28;20415;-91
2022/01/09 10:05:25;;;;;;;26.90;18.55;;;;;;;;;;4952949;28;20427;-91
2022/01/09 10:07:52;;;;;;;27.48;21.52;;;;;;;;;;4952763;28;20931;-92
2022/01/09 10:10:21;;;;;;;22.67;16.08;;;;;;;;;;4950340;28;20424;-91
2022/01/09 10:12:50;;;;;;;25.13;19.48;;;;;;;;;;4953978;28;20905;-91
2022/01/09 10:15:19;;;;;;;24.48;18.45;;;;;;;;;;4953950;28;20416;-90
2022/01/09 10:17:47;;;;;;;26.13;19.38;;;;;;;;;;4953874;28;20568;-91
2022/01/09 10:20:17;;;;;;;25.45;18.63;;;;;;;;;;4953825;28;20420;-92
2022/01/09 10:22:46;;;;;;;24.13;18.00;;;;;;;;;;4952248;28;20427;-86
2022/01/09 10:25:21;;;;;;;44.50;39.97;;;;;;;;;;4946810;29;20431;-85
2022/01/09 10:27:50;;;;;;;18.40;15.15;;;;;;;;;;4948971;28;20435;-85
2022/01/09 10:30:17;;;;;;;21.15;15.90;;;;;;;;;;4952654;28;20769;-87
2022/01/09 10:32:44;;;;;;;22.42;16.52;;;;;;;;;;4947963;28;20409;-86
2022/01/09 10:35:16;;;;;;;25.57;18.10;;;;;;;;;;4937026;29;20426;-83
2022/01/09 10:37:45;;;;;;;27.63;18.92;;;;;;;;;;4945393;28;20416;-84
2022/01/09 10:40:20;;;;;;;25.75;18.45;;;;;;;;;;4940274;28;20839;-83
2022/01/09 10:43:01;;;;;;;35.28;25.70;;;;;;;;;;4944506;28;20519;-83
2022/01/09 10:45:29;;;;;;;49.47;30.38;;;;;;;;;;4949948;28;20821;-82
2022/01/09 10:48:05;;;;;;;24.05;17.08;;;;;;;;;;4939205;28;20420;-84
2022/01/09 10:50:37;;;;;;;42.38;26.88;;;;;;;;;;4948470;28;20396;-84
2022/01/09 10:53:22;;;;;;;25.25;18.00;;;;;;;;;;4940820;28;20797;-82
2022/01/09 10:56:06;;;;;;;21.38;15.60;;;;;;;;;;4951429;28;20424;-84
2022/01/09 10:58:35;;;;;;;34.67;24.05;;;;;;;;;;4950395;28;20471;-82
2022/01/09 11:01:26;;;;;;;21.20;14.97;;;;;;;;;;4951961;29;20484;-81
2022/01/09 11:03:55;;;;;;;28.25;20.08;;;;;;;;;;4936307;28;20420;-82
2022/01/09 11:06:25;;;;;;;27.52;19.20;;;;;;;;;;4950701;28;20408;-82
2022/01/09 11:08:54;;;;;;;19.92;15.13;;;;;;;;;;4950290;28;20424;-82
2022/01/09 11:11:38;;;;;;;20.08;12.50;;;;;;;;;;4945847;28;20467;-89
2022/01/09 11:14:07;;;;;;;17.88;12.63;;;;;;;;;;4949278;29;20412;-89
2022/01/09 11:16:36;;;;;;;26.20;14.82;;;;;;;;;;4950297;29;20432;-86
2022/01/09 11:19:09;;;;;;;18.77;12.65;;;;;;;;;;4947119;29;20515;-85
2022/01/09 11:21:39;;;;;;;18.13;12.05;;;;;;;;;;4946754;29;20810;-85
2022/01/09 11:24:30;;;;;;;19.40;12.55;;;;;;;;;;4946984;29;20408;-86
2022/01/09 11:27:01;;;;;;;17.70;12.27;;;;;;;;;;4944627;28;20483;-86
2022/01/09 11:29:33;;;;;;;16.93;11.87;;;;;;;;;;4949475;28;20522;-86
2022/01/09 11:32:13;;;;;;;16.58;12.68;;;;;;;;;;4950105;29;20554;-81
2022/01/09 11:34:51;;;;;;;16.45;12.38;;;;;;;;;;4949468;28;20400;-86
2022/01/09 11:37:27;;;;;;;16.90;12.32;;;;;;;;;;4950655;28;20896;-87
2022/01/09 11:39:54;;;;;;;18.58;13.40;;;;;;;;;;4947069;28;20418;-88
2022/01/09 11:42:21;;;;;;;19.48;14.88;;;;;;;;;;4950912;28;20463;-89
2022/01/09 11:44:50;;;;;;;20.58;15.48;;;;;;;;;;4950056;28;20412;-87
2022/01/09 11:47:18;;;;;;;20.58;14.20;;;;;;;;;;4950257;28;20400;-83
2022/01/09 11:50:08;;;;;;;18.98;13.70;;;;;;;;;;4949462;28;20424;-86
2022/01/09 11:52:58;;;;;;;19.60;14.50;;;;;;;;;;4947515;29;20917;-86
2022/01/09 11:55:42;;;;;;;21.48;14.10;;;;;;;;;;4945770;29;20975;-87
2022/01/09 11:58:11;;;;;;;17.88;13.15;;;;;;;;;;4949040;28;20499;-87
2022/01/09 12:00:40;;;;;;;20.20;13.65;;;;;;;;;;4945793;28;20519;-86
2022/01/09 12:03:34;;;;;;;17.75;12.88;;;;;;;;;;4948121;28;20475;-86
2022/01/09 12:06:02;;;;;;;17.38;13.50;;;;;;;;;;4939666;29;20818;-86
2022/01/09 12:08:28;;;;;;;20.77;13.82;;;;;;;;;;4944615;29;20527;-87
2022/01/09 12:10:59;;;;;;;20.27;15.20;;;;;;;;;;4946338;28;20420;-86
2022/01/09 12:13:50;;;;;;;19.63;14.05;;;;;;;;;;4945372;28;20435;-86
2022/01/09 12:16:48;;;;;;;18.48;13.52;;;;;;;;;;4942994;28;20876;-85
2022/01/09 12:19:48;;;;;;;18.40;13.07;;;;;;;;;;4943277;28;20418;-85
2022/01/09 12:22:15;;;;;;;18.30;12.20;;;;;;;;;;4948372;28;20405;-86
2022/01/09 12:24:43;;;;;;;19.50;12.13;;;;;;;;;;4941730;28;20414;-86
2022/01/09 12:27:43;;;;;;;18.17;12.65;;;;;;;;;;4936892;28;20445;-85
2022/01/09 12:30:11;;;;;;;16.00;11.75;;;;;;;;;;4940956;28;20426;-86
2022/01/09 12:32:40;;;;;;;14.93;10.80;;;;;;;;;;4933868;28;20424;-86
2022/01/09 12:35:18;;;;;;;14.77;10.30;;;;;;;;;;4943748;28;20896;-86
2022/01/09 12:37:46;;;;;;;14.30;10.48;;;;;;;;;;4943582;28;20423;-86
2022/01/09 12:40:16;;;;;;;15.87;11.23;;;;;;;;;;4938481;28;20426;-86
2022/01/09 12:42:50;;;;;;;16.63;11.95;;;;;;;;;;4945521;28;20471;-86
2022/01/09 12:45:21;;;;;;;18.38;12.88;;;;;;;;;;4941941;28;20408;-86
2022/01/09 12:47:48;;;;;;;17.40;12.48;;;;;;;;;;4942003;28;20891;-86
2022/01/09 12:50:16;;;;;;;18.98;13.48;;;;;;;;;;4939210;28;20430;-87
2022/01/09 12:52:43;;;;;;;19.92;13.68;;;;;;;;;;4939587;28;20412;-86
2022/01/09 12:55:13;;;;;;;18.13;13.20;;;;;;;;;;4938367;28;20437;-87
2022/01/09 12:57:59;;;;;;;20.50;14.32;;;;;;;;;;4944184;28;20428;-86
2022/01/09 13:00:28;;;;;;;18.13;12.90;;;;;;;;;;4945177;28;20494;-84
2022/01/09 13:02:56;;;;;;;34.72;20.05;;;;;;;;;;4941867;28;20427;-86
2022/01/09 13:05:24;;;;;;;19.15;13.35;;;;;;;;;;4942576;28;20503;-86
2022/01/09 13:07:58;;;;;;;18.70;13.68;;;;;;;;;;4938233;28;20422;-84
2022/01/09 13:10:30;;;;;;;20.08;14.15;;;;;;;;;;4935990;28;20424;-86
2022/01/09 13:13:02;;;;;;;18.85;13.70;;;;;;;;;;4937116;28;20482;-85
2022/01/09 13:15:33;;;;;;;20.15;14.02;;;;;;;;;;4937302;28;20874;-86
2022/01/09 13:18:00;;;;;;;19.85;14.15;;;;;;;;;;4939726;28;20924;-85
2022/01/09 13:20:27;;;;;;;19.10;14.32;;;;;;;;;;4940504;28;20459;-85
2022/01/09 13:23:08;;;;;;;19.50;13.88;;;;;;;;;;4941231;28;20784;-85
2022/01/09 13:25:43;;;;;;;18.75;13.25;;;;;;;;;;4939965;28;20485;-84
2022/01/09 13:28:19;;;;;;;21.92;15.63;;;;;;;;;;4941604;28;20894;-85
2022/01/09 13:30:46;;;;;;;20.30;14.17;;;;;;;;;;4942801;28;20429;-84
2022/01/09 13:33:12;;;;;;;20.90;14.45;;;;;;;;;;4938893;28;20423;-84
2022/01/09 13:35:39;;;;;;;21.65;14.60;;;;;;;;;;4937604;28;20426;-84
2022/01/09 13:38:06;;;;;;;19.20;14.38;;;;;;;;;;4937035;28;20465;-83
2022/01/09 13:40:33;;;;;;;19.75;14.68;;;;;;;;;;4941601;28;20512;-85
2022/01/09 13:43:02;;;;;;;19.60;14.02;;;;;;;;;;4938913;28;21308;-83
2022/01/09 13:45:34;;;;;;;18.75;13.30;;;;;;;;;;4941116;28;20422;-83
2022/01/09 13:48:01;;;;;;;22.80;14.48;;;;;;;;;;4941798;28;20426;-83
2022/01/09 13:50:30;;;;;;;23.53;14.57;;;;;;;;;;4948476;28;20607;-86
2022/01/09 13:53:07;;;;;;;51.10;17.08;;;;;;;;;;4941571;28;20420;-83
2022/01/09 13:55:35;;;;;;;134.38;22.17;;;;;;;;;;4940296;28;20422;-83
2022/01/09 13:58:06;;;;;;;40.45;16.65;;;;;;;;;;4944118;28;20420;-84
2022/01/09 14:00:37;;;;;;;22.33;15.20;;;;;;;;;;4941954;28;20425;-83
2022/01/09 14:03:06;;;;;;;27.85;18.92;;;;;;;;;;4937869;28;20419;-81
2022/01/09 14:05:36;;;;;;;22.88;15.95;;;;;;;;;;4943711;28;20408;-88
2022/01/09 14:08:38;;;;;;;22.23;16.87;;;;;;;;;;5127633;27;20350;-89
2022/01/09 14:11:07;;;;;;;20.13;15.43;;;;;;;;;;5136819;27;20419;-83
2022/01/09 14:13:39;;;;;;;23.08;16.55;;;;;;;;;;5126349;27;20455;-84
2022/01/09 14:16:11;;;;;;;21.83;15.63;;;;;;;;;;5120883;27;20458;-84
2022/01/09 14:18:38;;;;;;;21.73;15.85;;;;;;;;;;5116098;27;20387;-81
2022/01/09 14:21:07;;;;;;;23.40;16.63;;;;;;;;;;5116993;27;20476;-83
2022/01/09 14:23:36;;;;;;;22.42;17.10;;;;;;;;;;5115466;27;20398;-84
2022/01/09 14:26:08;;;;;;;22.50;16.25;;;;;;;;;;5113480;27;20988;-81
2022/01/09 14:28:35;;;;;;;22.47;17.70;;;;;;;;;;5114927;27;20890;-84
2022/01/09 14:31:07;;;;;;;21.92;16.10;;;;;;;;;;5116235;27;20862;-85